Time;durP1;ratioP1;P1;durP2;ratioP2;P2;SDS_P1;SDS_P2;PMS_P1;PMS_P2;Temp;Humidity;BMP_temperature;BMP_pressure;BME280_temperature;BME280_humidity;BME280_pressure;Samples;Min_cycle;Max_cycle;Signal;HPM_P1;HPM_P2
2023/03/19 00:01:27;;;;;;;14.50;13.10;;;21.30;63.20;;;;;;5013902;28;20443;-88
2023/03/19 00:03:54;;;;;;;14.50;13.20;;;21.40;63.30;;;;;;5013908;28;20490;-88
2023/03/19 00:06:21;;;;;;;15.17;13.70;;;21.30;63.20;;;;;;5013897;28;20560;-92
2023/03/19 00:08:48;;;;;;;13.20;11.90;;;21.30;63.20;;;;;;5013682;28;20935;-88
2023/03/19 00:11:15;;;;;;;12.87;11.57;;;21.30;63.30;;;;;;5014087;28;20893;-89
2023/03/19 00:13:42;;;;;;;15.50;13.97;;;21.30;63.10;;;;;;5013775;28;20451;-91
2023/03/19 00:16:10;;;;;;;13.93;12.47;;;21.30;63.40;;;;;;5013981;28;20438;-88
2023/03/19 00:18:37;;;;;;;16.37;12.57;;;21.30;63.10;;;;;;5013772;28;20538;-88
2023/03/19 00:21:04;;;;;;;14.73;13.33;;;21.30;63.20;;;;;;5013864;28;20447;-88
2023/03/19 00:23:31;;;;;;;13.13;11.93;;;21.30;63.10;;;;;;5013763;28;20487;-91
2023/03/19 00:25:58;;;;;;;13.30;11.30;;;21.30;63.20;;;;;;5013866;28;20851;-91
2023/03/19 00:28:26;;;;;;;13.03;11.73;;;21.30;63.10;;;;;;5013746;28;20455;-91
2023/03/19 00:30:52;;;;;;;14.43;13.00;;;21.20;63.10;;;;;;5013101;28;20506;-91
2023/03/19 00:33:20;;;;;;;14.60;11.70;;;21.20;63.00;;;;;;5013515;28;20444;-91
2023/03/19 00:35:47;;;;;;;14.03;12.63;;;21.40;63.30;;;;;;5013629;28;20467;-89
2023/03/19 00:38:15;;;;;;;12.57;11.47;;;21.20;63.10;;;;;;5013725;28;20445;-89
2023/03/19 00:40:41;;;;;;;14.23;12.90;;;21.20;63.30;;;;;;5013595;28;20470;-91
2023/03/19 00:43:08;;;;;;;13.83;12.50;;;21.30;63.10;;;;;;5013329;28;20495;-88
2023/03/19 00:45:35;;;;;;;11.30;10.30;;;21.20;63.10;;;;;;5013529;28;20448;-88
2023/03/19 00:48:02;;;;;;;11.97;10.87;;;21.20;63.10;;;;;;5013552;28;20834;-90
2023/03/19 00:50:30;;;;;;;13.33;12.10;;;21.20;63.10;;;;;;5013696;28;20803;-89
2023/03/19 00:52:57;;;;;;;12.40;11.30;;;21.20;63.10;;;;;;5013573;28;20448;-90
2023/03/19 00:55:24;;;;;;;11.40;10.50;;;21.20;63.10;;;;;;5013578;28;20498;-89
2023/03/19 00:57:51;;;;;;;14.23;11.37;;;21.20;63.10;;;;;;5013565;28;20479;-90
2023/03/19 01:00:19;;;;;;;10.87;9.77;;;21.20;63.10;;;;;;5013099;28;20447;-88
2023/03/19 01:02:46;;;;;;;12.60;11.40;;;21.20;63.10;;;;;;5013411;28;20491;-91
2023/03/19 01:05:12;;;;;;;11.80;10.63;;;21.20;63.00;;;;;;5013382;28;20489;-90
2023/03/19 01:07:40;;;;;;;11.63;10.63;;;21.20;63.10;;;;;;5013182;28;20494;-90
2023/03/19 01:10:08;;;;;;;11.97;10.83;;;21.20;63.10;;;;;;5013459;28;20439;-89
2023/03/19 01:12:35;;;;;;;12.10;11.00;;;21.20;63.10;;;;;;5013115;28;20486;-88
2023/03/19 01:15:03;;;;;;;10.93;9.90;;;21.20;63.10;;;;;;5013684;28;20454;-89
2023/03/19 01:17:30;;;;;;;11.30;10.23;;;21.20;63.20;;;;;;5013422;28;20444;-91
2023/03/19 01:19:57;;;;;;;11.73;10.57;;;21.20;63.10;;;;;;5013359;28;20518;-89
2023/03/19 01:22:25;;;;;;;10.40;9.53;;;21.20;63.10;;;;;;5012992;28;20441;-89
2023/03/19 01:24:53;;;;;;;10.93;9.83;;;21.20;63.10;;;;;;5013144;28;20447;-88
2023/03/19 01:27:21;;;;;;;11.43;10.43;;;21.30;63.20;;;;;;5012861;28;20455;-88
2023/03/19 01:29:47;;;;;;;11.03;10.03;;;21.20;63.10;;;;;;5013318;28;20462;-90
2023/03/19 01:32:14;;;;;;;10.03;9.13;;;21.20;63.10;;;;;;5012912;28;20959;-88
2023/03/19 01:34:41;;;;;;;10.90;9.90;;;21.20;63.10;;;;;;5012784;28;20447;-89
2023/03/19 01:37:08;;;;;;;10.40;9.50;;;21.20;63.10;;;;;;5016308;28;20942;-88
2023/03/19 01:39:35;;;;;;;10.40;9.40;;;21.20;63.10;;;;;;4999435;28;20453;-91
2023/03/19 01:42:04;;;;;;;9.53;8.63;;;21.20;63.20;;;;;;5016663;28;20447;-92
2023/03/19 01:44:33;;;;;;;10.10;9.10;;;21.20;63.10;;;;;;5016243;28;21005;-91
2023/03/19 01:47:03;;;;;;;9.23;8.37;;;21.20;63.10;;;;;;5016472;28;20448;-89
2023/03/19 01:49:31;;;;;;;9.90;9.00;;;21.20;63.90;;;;;;5016585;28;20438;-90
2023/03/19 01:52:00;;;;;;;10.63;9.63;;;21.10;62.90;;;;;;5016263;28;20443;-90
2023/03/19 01:54:30;;;;;;;9.57;8.63;;;21.10;63.00;;;;;;5016403;28;20443;-90
2023/03/19 01:57:00;;;;;;;9.57;8.77;;;21.20;63.20;;;;;;5016458;28;20443;-90
2023/03/19 01:59:31;;;;;;;10.60;9.60;;;21.20;63.10;;;;;;5016378;28;20443;-88
2023/03/19 02:02:02;;;;;;;10.03;8.33;;;21.10;63.00;;;;;;5016293;28;20907;-90
2023/03/19 02:04:30;;;;;;;9.90;8.90;;;21.10;63.00;;;;;;5015963;28;20475;-89
2023/03/19 02:06:59;;;;;;;8.97;8.13;;;21.10;63.00;;;;;;5015759;28;20566;-89
2023/03/19 02:09:27;;;;;;;8.63;7.93;;;21.10;63.00;;;;;;5015941;28;20443;-89
2023/03/19 02:11:55;;;;;;;8.67;7.87;;;21.10;63.00;;;;;;5016020;28;20443;-92
2023/03/19 02:14:21;;;;;;;10.00;8.60;;;21.10;63.00;;;;;;5016068;28;20442;-89
2023/03/19 02:16:50;;;;;;;9.07;8.20;;;21.10;63.10;;;;;;5015683;28;20439;-89
2023/03/19 02:19:20;;;;;;;9.77;8.00;;;21.10;63.00;;;;;;5016074;28;20493;-88
2023/03/19 02:21:47;;;;;;;9.00;8.10;;;21.10;63.00;;;;;;5015846;28;20439;-90
2023/03/19 02:24:19;;;;;;;8.37;7.60;;;21.10;63.00;;;;;;5015298;28;20482;-89
2023/03/19 02:26:48;;;;;;;8.90;8.10;;;21.10;63.00;;;;;;5015711;28;20439;-88
2023/03/19 02:29:15;;;;;;;8.83;8.13;;;21.10;63.00;;;;;;5015679;28;20787;-88
2023/03/19 02:31:42;;;;;;;8.60;7.90;;;21.10;63.00;;;;;;5015392;28;20538;-88
2023/03/19 02:34:35;;;;;;;8.87;8.07;;;21.10;63.00;;;;;;5015962;28;20451;-89
2023/03/19 02:37:08;;;;;;;8.03;7.30;;;21.10;63.00;;;;;;4997953;28;20447;-89
2023/03/19 02:39:40;;;;;;;9.43;8.57;;;21.10;63.10;;;;;;5015714;28;20443;-88
2023/03/19 02:42:09;;;;;;;7.57;6.87;;;21.10;63.00;;;;;;5014966;28;20443;-89
2023/03/19 02:44:36;;;;;;;8.13;7.30;;;21.10;63.00;;;;;;5015202;28;20483;-89
2023/03/19 02:47:03;;;;;;;7.53;6.93;;;21.10;63.10;;;;;;5015370;28;20447;-89
2023/03/19 02:49:30;;;;;;;9.80;7.83;;;21.10;63.10;;;;;;5015664;28;20454;-88
2023/03/19 02:51:57;;;;;;;7.70;6.90;;;21.10;63.00;;;;;;5015177;28;20443;-88
2023/03/19 02:54:24;;;;;;;8.33;7.10;;;21.10;63.10;;;;;;5015438;28;20470;-89
2023/03/19 02:56:51;;;;;;;7.50;6.80;;;21.00;63.00;;;;;;5015378;28;20448;-90
2023/03/19 02:59:20;;;;;;;7.53;6.87;;;21.10;63.10;;;;;;5015275;28;20939;-91
2023/03/19 03:01:47;;;;;;;7.23;6.57;;;21.10;63.10;;;;;;5015049;28;20447;-88
2023/03/19 03:04:15;;;;;;;7.80;7.10;;;21.00;63.00;;;;;;5014674;28;20483;-89
2023/03/19 03:06:42;;;;;;;8.40;6.80;;;21.10;63.20;;;;;;5014801;28;20482;-90
2023/03/19 03:09:09;;;;;;;7.37;6.77;;;21.00;63.00;;;;;;5014447;28;20957;-90
2023/03/19 03:11:36;;;;;;;7.17;6.50;;;21.00;63.00;;;;;;5014328;28;20962;-88
2023/03/19 03:14:03;;;;;;;7.43;6.67;;;21.10;63.00;;;;;;5014341;28;20455;-89
2023/03/19 03:16:31;;;;;;;6.50;5.90;;;21.00;63.00;;;;;;5014785;28;20486;-89
2023/03/19 03:18:59;;;;;;;6.53;6.03;;;21.00;63.00;;;;;;5014423;28;20443;-89
2023/03/19 03:21:25;;;;;;;6.83;6.23;;;21.00;63.00;;;;;;5014317;28;20488;-89
2023/03/19 03:23:52;;;;;;;7.87;7.13;;;21.00;62.90;;;;;;5014626;28;20843;-89
2023/03/19 03:26:19;;;;;;;6.77;6.10;;;21.10;63.00;;;;;;5014833;28;20443;-89
2023/03/19 03:28:46;;;;;;;8.37;6.90;;;21.00;62.90;;;;;;5014503;28;20543;-90
2023/03/19 03:31:13;;;;;;;7.00;6.40;;;21.00;62.90;;;;;;5014385;28;20450;-89
2023/03/19 03:33:41;;;;;;;6.40;5.90;;;21.00;63.00;;;;;;5014514;28;20443;-91
2023/03/19 03:36:08;;;;;;;6.60;5.90;;;21.00;63.00;;;;;;5014101;28;20466;-89
2023/03/19 03:38:35;;;;;;;7.33;6.57;;;21.00;63.00;;;;;;5014489;28;20445;-89
2023/03/19 03:41:02;;;;;;;6.90;6.20;;;21.00;63.00;;;;;;5013948;28;20534;-91
2023/03/19 03:43:28;;;;;;;5.77;5.20;;;21.00;63.00;;;;;;5014049;28;21023;-89
2023/03/19 03:45:56;;;;;;;6.20;5.70;;;21.00;62.90;;;;;;5014523;28;20451;-88
2023/03/19 03:48:23;;;;;;;6.63;5.70;;;21.10;63.10;;;;;;5014088;28;20450;-88
2023/03/19 03:50:51;;;;;;;6.20;5.60;;;21.00;63.00;;;;;;5014320;28;20537;-90
2023/03/19 03:53:18;;;;;;;5.73;5.17;;;21.00;63.00;;;;;;5014105;28;20474;-89
2023/03/19 03:55:45;;;;;;;5.50;5.10;;;21.00;62.90;;;;;;5014388;28;20435;-89
2023/03/19 03:58:12;;;;;;;6.20;5.53;;;21.00;62.90;;;;;;5013632;28;20444;-88
2023/03/19 04:00:40;;;;;;;5.23;4.83;;;21.00;62.90;;;;;;5014080;28;20494;-90
2023/03/19 04:03:07;;;;;;;6.13;5.50;;;21.00;62.90;;;;;;5013835;28;20862;-89
2023/03/19 04:05:35;;;;;;;4.80;4.40;;;21.10;63.00;;;;;;5013745;28;20482;-88
2023/03/19 04:08:03;;;;;;;6.97;6.27;;;21.00;63.80;;;;;;5013962;28;20449;-89
2023/03/19 04:10:31;;;;;;;6.00;5.40;;;21.00;62.90;;;;;;5013651;28;20439;-89
2023/03/19 04:12:58;;;;;;;5.20;4.80;;;21.00;62.90;;;;;;5013675;28;20451;-91
2023/03/19 04:15:25;;;;;;;5.50;5.10;;;21.20;63.10;;;;;;5014139;28;20927;-89
2023/03/19 04:17:52;;;;;;;5.33;4.83;;;21.00;62.90;;;;;;5013931;28;20475;-90
2023/03/19 04:20:21;;;;;;;6.33;5.73;;;21.00;62.90;;;;;;5013678;28;20438;-88
2023/03/19 04:22:48;;;;;;;5.30;4.80;;;21.00;62.90;;;;;;5013919;28;20450;-89
2023/03/19 04:25:17;;;;;;;6.13;5.53;;;20.90;62.80;;;;;;5013847;28;20483;-89
2023/03/19 04:27:44;;;;;;;4.67;4.33;;;21.00;62.90;;;;;;5013820;28;20455;-88
2023/03/19 04:30:12;;;;;;;5.87;5.30;;;21.00;62.90;;;;;;5013723;28;20440;-90
2023/03/19 04:32:39;;;;;;;5.10;4.70;;;21.00;62.90;;;;;;5013793;28;20469;-88
2023/03/19 04:35:06;;;;;;;5.00;4.60;;;21.00;62.80;;;;;;5013483;28;20543;-89
2023/03/19 04:37:33;;;;;;;4.90;4.50;;;20.90;62.80;;;;;;5013633;28;20924;-90
2023/03/19 04:40:00;;;;;;;5.03;4.63;;;21.00;62.90;;;;;;5013742;28;20439;-88
2023/03/19 04:42:28;;;;;;;4.53;4.13;;;21.10;63.00;;;;;;5013473;28;20435;-89
2023/03/19 04:44:55;;;;;;;4.27;3.90;;;21.00;62.80;;;;;;5013612;28;20986;-89
2023/03/19 04:47:23;;;;;;;5.30;4.90;;;20.90;62.80;;;;;;5013770;28;20443;-88
2023/03/19 04:49:50;;;;;;;4.10;3.80;;;20.90;62.70;;;;;;5013800;28;20432;-88
2023/03/19 04:52:17;;;;;;;4.60;4.20;;;20.90;62.80;;;;;;5013575;28;20436;-88
2023/03/19 04:54:43;;;;;;;5.03;4.60;;;21.00;62.90;;;;;;5013146;28;20450;-90
2023/03/19 04:57:11;;;;;;;4.10;3.80;;;20.90;62.80;;;;;;5013474;28;20941;-89
2023/03/19 04:59:39;;;;;;;5.20;4.70;;;20.90;62.80;;;;;;5013774;28;20474;-87
2023/03/19 05:02:06;;;;;;;4.70;4.30;;;20.90;62.80;;;;;;5013191;28;20451;-88
2023/03/19 05:04:33;;;;;;;4.53;4.13;;;20.90;62.80;;;;;;5013170;28;20474;-88
2023/03/19 05:07:00;;;;;;;5.03;4.53;;;20.90;62.80;;;;;;5013101;28;20474;-87
2023/03/19 05:09:27;;;;;;;5.10;4.60;;;20.90;62.70;;;;;;5013321;28;20531;-89
2023/03/19 05:11:55;;;;;;;4.40;4.00;;;20.90;62.80;;;;;;5016547;28;20439;-89
2023/03/19 05:14:22;;;;;;;3.53;3.23;;;20.90;62.80;;;;;;5017129;28;20444;-87
2023/03/19 05:16:50;;;;;;;4.83;3.97;;;20.90;62.70;;;;;;5017391;28;20443;-88
2023/03/19 05:19:17;;;;;;;4.17;3.77;;;20.90;62.70;;;;;;5017087;28;20447;-88
2023/03/19 05:21:44;;;;;;;3.57;3.27;;;20.90;62.70;;;;;;5017037;28;20435;-88
2023/03/19 05:24:11;;;;;;;4.40;4.00;;;20.90;62.70;;;;;;5016919;28;20483;-90
2023/03/19 05:26:38;;;;;;;3.83;3.53;;;20.90;62.70;;;;;;5016828;28;20443;-88
2023/03/19 05:29:05;;;;;;;4.30;4.00;;;20.90;62.80;;;;;;5017233;28;20450;-90
2023/03/19 05:31:31;;;;;;;3.80;3.50;;;20.90;62.70;;;;;;5016555;28;20447;-88
2023/03/19 05:33:59;;;;;;;3.40;3.20;;;21.10;62.90;;;;;;5016791;28;20446;-87
2023/03/19 05:36:27;;;;;;;4.20;3.80;;;20.90;62.70;;;;;;5016754;28;20461;-88
2023/03/19 05:38:53;;;;;;;3.10;2.87;;;20.90;62.70;;;;;;5016812;28;20443;-88
2023/03/19 05:41:20;;;;;;;3.77;3.47;;;20.90;62.70;;;;;;5016545;28;20443;-89
2023/03/19 05:43:47;;;;;;;3.60;3.30;;;20.90;62.70;;;;;;5016520;28;20474;-89
2023/03/19 05:46:14;;;;;;;5.27;4.23;;;20.90;62.70;;;;;;5016468;28;20443;-88
2023/03/19 05:48:41;;;;;;;3.93;3.63;;;20.90;62.70;;;;;;5016606;28;20449;-88
2023/03/19 05:51:09;;;;;;;3.83;3.53;;;20.90;62.80;;;;;;5016106;28;20538;-87
2023/03/19 05:53:35;;;;;;;3.83;3.53;;;21.10;62.90;;;;;;5016202;28;20820;-88
2023/03/19 05:56:02;;;;;;;4.07;3.77;;;21.00;62.80;;;;;;5016412;28;20443;-87
2023/03/19 05:58:29;;;;;;;3.37;3.07;;;20.90;62.70;;;;;;5015677;28;20451;-87
2023/03/19 06:00:56;;;;;;;3.20;3.00;;;20.90;62.70;;;;;;5016470;28;20447;-90
2023/03/19 06:03:23;;;;;;;3.40;3.13;;;20.90;62.70;;;;;;5016109;28;20446;-87
2023/03/19 06:05:51;;;;;;;3.80;3.50;;;20.90;62.70;;;;;;5015971;28;20545;-87
2023/03/19 06:08:20;;;;;;;3.83;3.53;;;20.90;62.70;;;;;;5016293;28;20451;-88
2023/03/19 06:10:47;;;;;;;3.97;3.40;;;20.90;62.70;;;;;;5015713;28;21381;-87
2023/03/19 06:13:13;;;;;;;9.30;3.10;;;20.90;62.70;;;;;;5016234;28;20443;-87
2023/03/19 06:15:40;;;;;;;3.37;3.07;;;20.90;62.70;;;;;;5016142;28;20811;-87
2023/03/19 06:18:07;;;;;;;3.70;3.40;;;20.90;62.70;;;;;;5015803;28;20447;-88
2023/03/19 06:20:34;;;;;;;3.80;3.50;;;20.90;62.70;;;;;;5015907;28;20439;-87
2023/03/19 06:23:01;;;;;;;3.27;3.00;;;20.90;62.70;;;;;;5015607;28;20443;-88
2023/03/19 06:25:29;;;;;;;2.93;2.73;;;20.90;62.70;;;;;;5015525;28;20496;-88
2023/03/19 06:27:56;;;;;;;3.50;3.30;;;20.90;62.70;;;;;;5015391;28;20451;-89
2023/03/19 06:30:23;;;;;;;3.53;3.23;;;20.80;62.60;;;;;;5015607;28;20447;-89
2023/03/19 06:32:50;;;;;;;3.50;3.20;;;20.90;62.70;;;;;;5015453;28;20447;-88
2023/03/19 06:35:17;;;;;;;2.90;2.70;;;20.80;62.60;;;;;;5015454;28;21032;-89
2023/03/19 06:37:44;;;;;;;2.83;2.60;;;20.90;62.70;;;;;;5015591;28;20446;-88
2023/03/19 06:40:12;;;;;;;3.37;3.07;;;20.80;62.70;;;;;;5015534;28;20450;-88
2023/03/19 06:42:40;;;;;;;3.20;3.00;;;20.80;62.60;;;;;;5015501;28;20449;-88
2023/03/19 06:45:08;;;;;;;3.17;2.47;;;20.80;63.40;;;;;;5015430;28;20506;-88
2023/03/19 06:47:34;;;;;;;3.27;3.00;;;20.90;62.70;;;;;;5015396;28;20446;-90
2023/03/19 06:50:01;;;;;;;3.03;2.80;;;20.80;62.60;;;;;;5015464;28;20449;-87
2023/03/19 06:52:28;;;;;;;2.80;2.60;;;20.80;62.70;;;;;;5015373;28;20439;-88
2023/03/19 06:54:55;;;;;;;2.97;2.60;;;20.80;62.70;;;;;;5014821;28;20444;-89
2023/03/19 06:57:22;;;;;;;2.53;2.33;;;20.90;62.80;;;;;;5015014;28;20440;-88
2023/03/19 06:59:50;;;;;;;2.63;2.43;;;20.80;62.60;;;;;;5015153;28;20443;-89
2023/03/19 07:02:17;;;;;;;2.80;2.60;;;20.80;62.60;;;;;;5015292;28;20446;-89
2023/03/19 07:04:44;;;;;;;2.57;2.37;;;20.90;62.70;;;;;;5015012;28;20487;-88
2023/03/19 07:07:11;;;;;;;3.37;2.80;;;20.80;62.60;;;;;;5014642;28;20537;-90
2023/03/19 07:09:37;;;;;;;2.70;2.50;;;20.90;62.70;;;;;;5014776;28;20466;-88
2023/03/19 07:12:05;;;;;;;2.43;2.23;;;20.80;62.60;;;;;;5014875;28;20454;-88
2023/03/19 07:14:31;;;;;;;2.70;2.50;;;20.90;62.70;;;;;;5014868;28;20450;-89
2023/03/19 07:17:00;;;;;;;2.80;2.60;;;20.90;62.70;;;;;;5014798;28;20938;-89
2023/03/19 07:19:27;;;;;;;2.70;2.50;;;20.80;63.40;;;;;;5014925;28;20435;-87
2023/03/19 07:21:53;;;;;;;3.23;2.97;;;20.80;62.60;;;;;;5014347;28;20435;-88
2023/03/19 07:24:20;;;;;;;3.83;2.23;;;20.90;63.60;;;;;;5014314;28;20449;-88
2023/03/19 07:26:47;;;;;;;2.60;2.40;;;20.90;62.70;;;;;;5014403;28;20541;-88
2023/03/19 07:29:14;;;;;;;2.70;2.40;;;20.80;62.60;;;;;;5014651;28;20443;-88
2023/03/19 07:31:41;;;;;;;2.73;2.53;;;20.80;62.60;;;;;;5014427;28;20448;-89
2023/03/19 07:34:09;;;;;;;2.20;2.10;;;20.80;62.60;;;;;;5014011;28;20555;-89
2023/03/19 07:36:36;;;;;;;2.40;2.20;;;20.80;62.60;;;;;;5014232;28;20463;-90
2023/03/19 07:39:03;;;;;;;2.40;2.20;;;20.80;62.60;;;;;;5014358;28;20443;-90
2023/03/19 07:41:30;;;;;;;2.50;2.30;;;20.80;62.60;;;;;;5014507;28;20439;-90
2023/03/19 07:43:57;;;;;;;2.63;2.43;;;20.80;62.60;;;;;;5014827;28;20514;-89
2023/03/19 07:46:23;;;;;;;2.37;2.17;;;20.80;62.60;;;;;;5014261;28;20495;-90
2023/03/19 07:48:50;;;;;;;2.57;2.37;;;20.80;62.60;;;;;;5014112;28;20438;-89
2023/03/19 07:51:18;;;;;;;2.43;2.23;;;20.80;62.60;;;;;;5014039;28;20439;-89
2023/03/19 07:53:45;;;;;;;2.23;2.03;;;20.80;62.60;;;;;;5013823;28;20526;-89
2023/03/19 07:56:12;;;;;;;2.30;2.10;;;20.80;62.60;;;;;;5014352;28;20448;-89
2023/03/19 07:58:40;;;;;;;2.30;2.20;;;21.00;62.80;;;;;;5014476;28;20443;-94
2023/03/19 08:01:07;;;;;;;2.10;1.90;;;20.80;62.60;;;;;;5014653;28;20447;-94
2023/03/19 08:03:34;;;;;;;1.83;1.73;;;20.80;62.60;;;;;;5014232;28;20447;-92
2023/03/19 08:06:01;;;;;;;2.63;2.40;;;20.80;62.50;;;;;;5013659;28;20486;-91
2023/03/19 08:08:29;;;;;;;2.93;2.20;;;20.80;62.50;;;;;;5013845;28;20443;-90
2023/03/19 08:10:56;;;;;;;3.90;2.03;;;20.80;62.70;;;;;;5013827;28;20541;-90
2023/03/19 08:13:23;;;;;;;2.87;1.83;;;20.80;62.80;;;;;;5013473;28;20977;-89
2023/03/19 08:15:51;;;;;;;3.27;2.00;;;20.80;62.90;;;;;;5011840;28;20447;-88
2023/03/19 08:18:17;;;;;;;3.87;1.80;;;20.80;63.00;;;;;;5003026;28;20447;-88
2023/03/19 08:20:44;;;;;;;2.33;2.13;;;20.80;62.90;;;;;;5004235;28;21723;-89
2023/03/19 08:23:11;;;;;;;2.87;2.57;;;20.80;62.90;;;;;;5029979;28;20438;-89
2023/03/19 08:25:40;;;;;;;2.80;2.23;;;20.80;63.00;;;;;;5031433;28;20535;-89
2023/03/19 08:28:08;;;;;;;7.43;2.27;;;20.80;62.90;;;;;;5011291;28;20443;-89
2023/03/19 08:30:35;;;;;;;5.13;2.10;;;20.80;63.00;;;;;;5013781;28;20451;-89
2023/03/19 08:33:02;;;;;;;2.53;2.03;;;20.90;63.10;;;;;;5013815;28;20447;-89
2023/03/19 08:35:29;;;;;;;2.20;1.80;;;20.80;63.10;;;;;;5013745;28;20463;-89
2023/03/19 08:37:56;;;;;;;2.43;1.90;;;20.90;63.30;;;;;;5013396;28;20955;-89
2023/03/19 08:40:24;;;;;;;2.00;1.70;;;20.80;63.10;;;;;;5013780;28;20439;-90
2023/03/19 08:42:53;;;;;;;5.10;1.93;;;20.90;63.30;;;;;;5013870;28;20509;-89
2023/03/19 08:45:20;;;;;;;2.33;2.13;;;20.90;63.40;;;;;;5015404;28;20482;-89
2023/03/19 08:47:48;;;;;;;2.33;2.10;;;20.80;63.30;;;;;;5017071;28;20451;-91
2023/03/19 08:50:15;;;;;;;2.50;2.20;;;20.80;63.40;;;;;;5016437;28;20557;-91
2023/03/19 08:52:42;;;;;;;2.97;2.77;;;20.80;63.30;;;;;;5016988;28;20452;-92
2023/03/19 08:55:10;;;;;;;2.23;2.03;;;20.90;63.30;;;;;;5016917;28;20463;-92
2023/03/19 08:57:37;;;;;;;3.30;2.57;;;20.80;63.40;;;;;;5017178;28;20439;-87
2023/03/19 09:00:07;;;;;;;1.80;1.67;;;20.90;63.50;;;;;;5016990;28;20453;-88
2023/03/19 09:02:34;;;;;;;4.53;1.80;;;20.80;63.50;;;;;;5017240;28;20534;-92
2023/03/19 09:05:01;;;;;;;2.97;1.60;;;20.90;63.50;;;;;;5017272;28;20788;-85
2023/03/19 09:07:28;;;;;;;1.97;1.40;;;20.80;63.00;;;;;;5017135;28;20443;-84
2023/03/19 09:09:55;;;;;;;3.60;1.40;;;20.80;62.90;;;;;;5016893;28;20443;-92
2023/03/19 09:12:22;;;;;;;6.70;1.50;;;20.90;63.10;;;;;;5016954;28;20447;-85
2023/03/19 09:14:50;;;;;;;6.83;1.53;;;20.80;62.80;;;;;;5014302;28;20465;-86
2023/03/19 09:17:19;;;;;;;12.43;2.00;;;20.80;62.80;;;;;;5016257;28;20462;-90
2023/03/19 09:19:45;;;;;;;3.63;1.57;;;20.60;62.60;;;;;;5016111;28;20926;-90
2023/03/19 09:22:12;;;;;;;6.80;1.80;;;20.80;62.80;;;;;;5015090;28;20449;-89
2023/03/19 09:24:39;;;;;;;2.53;1.60;;;20.80;62.70;;;;;;5016660;28;20447;-89
2023/03/19 09:27:06;;;;;;;4.10;1.90;;;20.90;62.90;;;;;;5016386;28;20486;-89
2023/03/19 09:29:33;;;;;;;5.63;1.43;;;20.90;62.90;;;;;;5016898;28;20961;-89
2023/03/19 09:32:00;;;;;;;3.80;1.70;;;20.90;62.90;;;;;;5016391;28;20486;-89
2023/03/19 09:34:28;;;;;;;3.90;1.90;;;20.90;62.90;;;;;;5016387;28;20447;-89
2023/03/19 09:36:55;;;;;;;3.10;2.00;;;21.10;63.10;;;;;;5016463;28;21292;-89
2023/03/19 09:39:22;;;;;;;2.00;1.50;;;20.90;62.80;;;;;;5016630;28;20446;-89
2023/03/19 09:42:05;;;;;;;3.93;1.60;;;20.90;63.00;;;;;;5016357;28;20439;-89
2023/03/19 09:44:36;;;;;;;2.67;1.60;;;21.00;63.20;;;;;;5016474;28;20454;-89
2023/03/19 09:47:12;;;;;;;8.63;1.87;;;21.00;63.20;;;;;;5016260;28;20997;-89
2023/03/19 09:49:44;;;;;;;4.60;2.17;;;21.00;63.10;;;;;;5016190;28;20449;-89
2023/03/19 09:52:21;;;;;;;4.67;1.73;;;21.00;63.10;;;;;;5016159;28;20471;-89
2023/03/19 09:54:51;;;;;;;3.60;1.63;;;21.00;63.10;;;;;;5016172;28;20938;-89
2023/03/19 09:57:18;;;;;;;2.10;1.40;;;21.00;63.10;;;;;;5015267;28;20484;-89
2023/03/19 09:59:46;;;;;;;2.83;1.60;;;21.00;63.10;;;;;;5015923;28;20443;-90
2023/03/19 10:02:40;;;;;;;2.27;1.63;;;21.00;63.10;;;;;;5016131;28;20915;-89
2023/03/19 10:05:21;;;;;;;3.93;1.60;;;21.00;63.10;;;;;;5015628;28;20533;-89
2023/03/19 10:08:03;;;;;;;3.97;1.57;;;21.00;63.20;;;;;;5015840;28;20502;-89
2023/03/19 10:10:45;;;;;;;3.50;1.93;;;21.00;63.20;;;;;;5015807;28;20455;-89
2023/03/19 10:13:26;;;;;;;1.60;1.37;;;21.00;63.30;;;;;;5015953;28;20926;-89
2023/03/19 10:15:55;;;;;;;6.30;1.60;;;21.00;63.20;;;;;;5015738;28;20443;-89
2023/03/19 10:18:28;;;;;;;6.70;1.73;;;21.00;63.20;;;;;;5015652;28;20793;-89
2023/03/19 10:21:00;;;;;;;1.53;1.37;;;21.00;63.20;;;;;;5015620;28;20443;-89
2023/03/19 10:23:39;;;;;;;3.20;1.60;;;21.00;63.20;;;;;;5015564;28;20447;-89
2023/03/19 10:26:11;;;;;;;2.13;1.60;;;21.00;63.30;;;;;;5015485;28;20577;-89
2023/03/19 10:28:40;;;;;;;2.27;1.40;;;21.00;63.30;;;;;;5015530;28;20519;-90
2023/03/19 10:31:19;;;;;;;1.87;1.60;;;21.00;63.40;;;;;;5015432;28;20562;-89
2023/03/19 10:33:56;;;;;;;3.00;1.57;;;21.00;63.50;;;;;;5015493;28;20443;-89
2023/03/19 10:36:30;;;;;;;1.20;1.00;;;21.00;63.50;;;;;;5015352;28;20463;-89
2023/03/19 10:38:57;;;;;;;4.03;1.40;;;21.00;63.50;;;;;;5015211;28;20533;-89
2023/03/19 10:41:31;;;;;;;5.03;1.37;;;21.10;63.50;;;;;;5015112;28;20498;-89
2023/03/19 10:44:01;;;;;;;2.23;1.40;;;21.00;63.40;;;;;;5015230;28;20493;-89
2023/03/19 10:46:36;;;;;;;2.70;1.60;;;21.10;63.40;;;;;;5015022;28;20502;-89
2023/03/19 10:49:03;;;;;;;1.70;1.20;;;21.10;64.30;;;;;;5015279;28;20465;-89
2023/03/19 10:51:32;;;;;;;2.73;1.30;;;21.10;63.50;;;;;;5015040;28;20438;-89
2023/03/19 10:54:01;;;;;;;1.50;1.40;;;21.10;63.50;;;;;;5014773;28;20463;-89
2023/03/19 10:56:30;;;;;;;3.43;1.63;;;21.10;63.70;;;;;;5014931;28;20435;-89
2023/03/19 10:59:00;;;;;;;1.60;1.50;;;21.10;63.70;;;;;;5015050;28;20942;-89
2023/03/19 11:01:28;;;;;;;2.33;1.30;;;21.10;63.70;;;;;;5014631;28;20941;-89
2023/03/19 11:03:57;;;;;;;2.33;1.33;;;21.30;64.00;;;;;;5014778;28;20439;-89
2023/03/19 11:06:27;;;;;;;2.17;1.50;;;21.20;63.80;;;;;;5014334;28;20586;-89
2023/03/19 11:09:01;;;;;;;1.50;1.40;;;21.20;63.70;;;;;;5013722;28;20442;-89
2023/03/19 11:11:34;;;;;;;1.30;1.20;;;21.20;64.60;;;;;;5014663;28;20501;-89
2023/03/19 11:14:08;;;;;;;1.87;1.30;;;21.50;64.10;;;;;;5014569;28;20444;-89
2023/03/19 11:16:48;;;;;;;1.50;1.40;;;21.30;63.90;;;;;;5014473;28;20505;-89
2023/03/19 11:19:20;;;;;;;1.50;1.40;;;21.30;63.90;;;;;;5015037;28;20438;-89
2023/03/19 11:21:59;;;;;;;1.87;1.30;;;21.30;63.80;;;;;;5014637;28;20449;-90
2023/03/19 11:24:31;;;;;;;1.97;1.50;;;21.30;63.80;;;;;;5014404;28;20439;-89
2023/03/19 11:26:58;;;;;;;2.03;1.13;;;21.30;63.80;;;;;;5014251;28;20487;-89
2023/03/19 11:29:27;;;;;;;1.57;1.20;;;21.40;63.70;;;;;;5014425;28;20498;-89
2023/03/19 11:32:03;;;;;;;2.20;1.10;;;21.40;63.80;;;;;;5014346;28;20535;-89
2023/03/19 11:34:39;;;;;;;1.80;1.03;;;21.30;63.70;;;;;;5014387;28;20452;-89
2023/03/19 11:37:13;;;;;;;1.27;1.13;;;21.40;63.70;;;;;;5014553;28;20435;-89
2023/03/19 11:39:50;;;;;;;1.47;1.03;;;21.40;63.70;;;;;;5014395;28;20526;-89
2023/03/19 11:42:48;;;;;;;1.40;1.30;;;21.40;63.60;;;;;;5014232;28;20447;-89
2023/03/19 11:45:24;;;;;;;1.40;1.23;;;21.40;63.70;;;;;;5012919;28;20435;-89
2023/03/19 11:48:01;;;;;;;1.30;1.10;;;21.40;63.70;;;;;;5014130;28;20493;-89
2023/03/19 11:50:33;;;;;;;1.80;1.40;;;21.30;63.60;;;;;;5014027;28;20434;-89
2023/03/19 11:53:08;;;;;;;4.73;1.10;;;21.30;64.50;;;;;;5013940;28;20471;-89
2023/03/19 11:55:41;;;;;;;1.50;1.10;;;21.30;63.70;;;;;;5013967;28;20449;-89
2023/03/19 11:58:26;;;;;;;1.07;0.97;;;21.30;63.70;;;;;;5013938;28;20533;-89
2023/03/19 12:00:54;;;;;;;1.30;1.10;;;21.30;63.70;;;;;;5013929;28;20512;-89
2023/03/19 12:04:08;;;;;;;2.70;1.00;;;21.30;63.80;;;;;;5013721;28;20441;-89
2023/03/19 12:06:48;;;;;;;1.27;1.10;;;21.30;63.80;;;;;;4952862;28;20489;-89
2023/03/19 12:09:23;;;;;;;1.10;0.93;;;21.30;63.80;;;;;;5004536;28;20455;-89
2023/03/19 12:11:58;;;;;;;1.40;1.30;;;21.20;63.70;;;;;;5013843;28;20454;-89
2023/03/19 12:14:44;;;;;;;1.43;1.20;;;21.20;63.70;;;;;;5013873;28;20445;-89
2023/03/19 12:17:24;;;;;;;1.53;1.07;;;21.20;63.70;;;;;;5013911;28;20490;-89
2023/03/19 12:20:15;;;;;;;1.80;1.20;;;21.30;63.90;;;;;;5013175;28;20443;-89
2023/03/19 12:23:10;;;;;;;1.53;1.00;;;21.20;63.70;;;;;;5013651;28;20443;-89
2023/03/19 12:26:03;;;;;;;1.83;1.00;;;21.20;63.90;;;;;;5000572;28;20476;-89
2023/03/19 12:28:34;;;;;;;1.50;1.17;;;21.20;63.90;;;;;;5013527;28;20451;-89
2023/03/19 12:31:40;;;;;;;1.90;1.00;;;21.20;63.80;;;;;;5013445;28;20443;-89
2023/03/19 12:34:19;;;;;;;1.27;1.17;;;21.20;64.70;;;;;;5007437;28;20513;-89
2023/03/19 12:36:52;;;;;;;1.30;1.00;;;21.30;64.00;;;;;;5013458;28;20538;-90
2023/03/19 12:39:24;;;;;;;1.70;1.17;;;21.20;63.90;;;;;;5013345;28;20447;-90
2023/03/19 12:41:52;;;;;;;1.47;1.07;;;21.30;64.00;;;;;;5013242;28;20781;-90
2023/03/19 12:44:27;;;;;;;1.40;1.27;;;21.20;63.90;;;;;;5013388;28;20467;-89
2023/03/19 12:46:58;;;;;;;1.53;0.90;;;21.20;63.80;;;;;;5013134;28;20490;-89
2023/03/19 12:49:30;;;;;;;1.20;0.90;;;21.20;63.80;;;;;;5013257;28;20452;-89
2023/03/19 12:52:02;;;;;;;1.23;1.00;;;21.20;63.90;;;;;;5013340;28;20450;-89
2023/03/19 12:54:35;;;;;;;1.20;1.10;;;21.30;64.80;;;;;;5013358;28;20451;-89